sensor_id;sensor_type;location;lat;lon;timestamp;P1;durP1;ratioP1;P2;durP2;ratioP2
76566;SDS011;65428;53.194;6.132;2023-08-07T00:00:11;4.90;;;1.10;;
76566;SDS011;65428;53.194;6.132;2023-08-07T00:02:37;3.03;;;1.27;;
76566;SDS011;65428;53.194;6.132;2023-08-07T00:05:03;3.67;;;1.27;;
76566;SDS011;65428;53.194;6.132;2023-08-07T00:07:30;4.43;;;1.10;;
76566;SDS011;65428;53.194;6.132;2023-08-07T00:09:55;3.90;;;1.00;;
76566;SDS011;65428;53.194;6.132;2023-08-07T00:12:21;4.43;;;1.60;;
76566;SDS011;65428;53.194;6.132;2023-08-07T00:14:47;3.57;;;1.20;;
76566;SDS011;65428;53.194;6.132;2023-08-07T00:17:15;5.30;;;1.58;;
76566;SDS011;65428;53.194;6.132;2023-08-07T00:19:41;3.65;;;1.48;;
76566;SDS011;65428;53.194;6.132;2023-08-07T00:22:06;4.43;;;1.80;;
76566;SDS011;65428;53.194;6.132;2023-08-07T00:24:32;4.10;;;1.50;;
76566;SDS011;65428;53.194;6.132;2023-08-07T00:26:58;5.35;;;1.77;;
76566;SDS011;65428;53.194;6.132;2023-08-07T00:29:24;4.07;;;1.37;;
76566;SDS011;65428;53.194;6.132;2023-08-07T00:31:49;3.20;;;1.73;;
76566;SDS011;65428;53.194;6.132;2023-08-07T00:34:15;5.63;;;2.20;;
76566;SDS011;65428;53.194;6.132;2023-08-07T00:36:40;4.43;;;1.80;;
76566;SDS011;65428;53.194;6.132;2023-08-07T00:39:06;5.87;;;2.50;;
76566;SDS011;65428;53.194;6.132;2023-08-07T00:41:33;5.22;;;2.13;;
76566;SDS011;65428;53.194;6.132;2023-08-07T00:43:58;6.78;;;2.10;;
76566;SDS011;65428;53.194;6.132;2023-08-07T00:46:24;5.20;;;1.97;;
76566;SDS011;65428;53.194;6.132;2023-08-07T00:48:51;4.63;;;2.10;;
76566;SDS011;65428;53.194;6.132;2023-08-07T00:51:18;5.03;;;2.07;;
76566;SDS011;65428;53.194;6.132;2023-08-07T00:53:44;5.57;;;2.15;;
76566;SDS011;65428;53.194;6.132;2023-08-07T00:56:11;5.17;;;1.53;;
76566;SDS011;65428;53.194;6.132;2023-08-07T00:58:37;5.00;;;1.60;;
76566;SDS011;65428;53.194;6.132;2023-08-07T01:01:03;8.48;;;2.17;;
76566;SDS011;65428;53.194;6.132;2023-08-07T01:03:29;8.07;;;2.40;;
76566;SDS011;65428;53.194;6.132;2023-08-07T01:05:55;10.00;;;2.47;;
76566;SDS011;65428;53.194;6.132;2023-08-07T01:08:21;12.33;;;2.30;;
76566;SDS011;65428;53.194;6.132;2023-08-07T01:16:37;12.80;;;2.78;;
76566;SDS011;65428;53.194;6.132;2023-08-07T01:19:25;14.45;;;2.97;;
76566;SDS011;65428;53.194;6.132;2023-08-07T01:22:11;12.80;;;2.37;;
76566;SDS011;65428;53.194;6.132;2023-08-07T01:24:39;12.32;;;3.20;;
76566;SDS011;65428;53.194;6.132;2023-08-07T01:30:08;10.85;;;2.55;;
76566;SDS011;65428;53.194;6.132;2023-08-07T01:35:33;11.37;;;2.50;;
76566;SDS011;65428;53.194;6.132;2023-08-07T01:38:03;11.05;;;2.58;;
76566;SDS011;65428;53.194;6.132;2023-08-07T01:40:30;11.23;;;2.25;;
76566;SDS011;65428;53.194;6.132;2023-08-07T01:42:57;12.10;;;2.53;;
76566;SDS011;65428;53.194;6.132;2023-08-07T01:45:26;10.73;;;2.78;;
76566;SDS011;65428;53.194;6.132;2023-08-07T01:47:54;11.93;;;2.30;;
76566;SDS011;65428;53.194;6.132;2023-08-07T01:50:20;10.02;;;2.63;;
76566;SDS011;65428;53.194;6.132;2023-08-07T01:52:46;11.85;;;2.50;;
76566;SDS011;65428;53.194;6.132;2023-08-07T01:55:15;11.75;;;2.90;;
76566;SDS011;65428;53.194;6.132;2023-08-07T01:57:42;10.43;;;2.40;;
76566;SDS011;65428;53.194;6.132;2023-08-07T02:00:07;9.57;;;2.70;;
76566;SDS011;65428;53.194;6.132;2023-08-07T02:02:34;9.20;;;2.30;;
76566;SDS011;65428;53.194;6.132;2023-08-07T02:05:00;12.27;;;2.57;;
76566;SDS011;65428;53.194;6.132;2023-08-07T02:07:26;8.53;;;2.43;;
76566;SDS011;65428;53.194;6.132;2023-08-07T02:09:52;12.45;;;3.13;;
76566;SDS011;65428;53.194;6.132;2023-08-07T02:12:17;7.90;;;1.90;;
76566;SDS011;65428;53.194;6.132;2023-08-07T02:14:43;8.38;;;2.42;;
76566;SDS011;65428;53.194;6.132;2023-08-07T02:17:08;10.57;;;2.57;;
76566;SDS011;65428;53.194;6.132;2023-08-07T02:19:34;9.00;;;2.03;;
76566;SDS011;65428;53.194;6.132;2023-08-07T02:22:00;15.00;;;3.27;;
76566;SDS011;65428;53.194;6.132;2023-08-07T02:24:26;9.77;;;2.43;;
76566;SDS011;65428;53.194;6.132;2023-08-07T02:26:51;10.55;;;2.78;;
76566;SDS011;65428;53.194;6.132;2023-08-07T02:29:17;10.82;;;2.72;;
76566;SDS011;65428;53.194;6.132;2023-08-07T02:31:43;10.40;;;3.00;;
76566;SDS011;65428;53.194;6.132;2023-08-07T02:34:08;6.13;;;1.52;;
76566;SDS011;65428;53.194;6.132;2023-08-07T02:36:34;10.07;;;2.50;;
76566;SDS011;65428;53.194;6.132;2023-08-07T02:39:00;11.75;;;3.22;;
76566;SDS011;65428;53.194;6.132;2023-08-07T02:41:25;14.82;;;4.18;;
76566;SDS011;65428;53.194;6.132;2023-08-07T02:43:51;13.80;;;4.17;;
76566;SDS011;65428;53.194;6.132;2023-08-07T02:46:17;16.27;;;5.30;;
76566;SDS011;65428;53.194;6.132;2023-08-07T02:48:43;15.33;;;5.37;;
76566;SDS011;65428;53.194;6.132;2023-08-07T02:51:09;16.33;;;4.80;;
76566;SDS011;65428;53.194;6.132;2023-08-07T02:53:35;15.68;;;5.13;;
76566;SDS011;65428;53.194;6.132;2023-08-07T02:56:01;17.08;;;5.50;;
76566;SDS011;65428;53.194;6.132;2023-08-07T02:58:26;18.33;;;5.23;;
76566;SDS011;65428;53.194;6.132;2023-08-07T03:00:52;14.35;;;4.80;;
76566;SDS011;65428;53.194;6.132;2023-08-07T03:03:18;10.63;;;4.00;;
76566;SDS011;65428;53.194;6.132;2023-08-07T03:05:48;15.17;;;4.80;;
76566;SDS011;65428;53.194;6.132;2023-08-07T03:08:15;16.88;;;5.68;;
76566;SDS011;65428;53.194;6.132;2023-08-07T03:10:41;16.47;;;5.80;;
76566;SDS011;65428;53.194;6.132;2023-08-07T03:13:07;14.27;;;5.20;;
76566;SDS011;65428;53.194;6.132;2023-08-07T03:15:32;11.20;;;4.55;;
76566;SDS011;65428;53.194;6.132;2023-08-07T03:17:58;12.13;;;4.43;;
76566;SDS011;65428;53.194;6.132;2023-08-07T03:20:24;13.57;;;3.88;;
76566;SDS011;65428;53.194;6.132;2023-08-07T03:22:49;16.30;;;3.73;;
76566;SDS011;65428;53.194;6.132;2023-08-07T03:25:15;14.40;;;4.07;;
76566;SDS011;65428;53.194;6.132;2023-08-07T03:27:40;13.93;;;3.93;;
76566;SDS011;65428;53.194;6.132;2023-08-07T03:30:06;16.58;;;4.38;;
76566;SDS011;65428;53.194;6.132;2023-08-07T03:32:32;16.40;;;4.15;;
76566;SDS011;65428;53.194;6.132;2023-08-07T03:34:58;16.47;;;4.87;;
76566;SDS011;65428;53.194;6.132;2023-08-07T03:37:24;12.67;;;3.67;;
76566;SDS011;65428;53.194;6.132;2023-08-07T03:39:49;17.25;;;3.92;;
76566;SDS011;65428;53.194;6.132;2023-08-07T03:42:15;16.23;;;3.53;;
76566;SDS011;65428;53.194;6.132;2023-08-07T03:44:41;14.15;;;3.30;;
76566;SDS011;65428;53.194;6.132;2023-08-07T03:47:06;14.73;;;3.33;;
76566;SDS011;65428;53.194;6.132;2023-08-07T03:49:32;16.35;;;3.25;;
76566;SDS011;65428;53.194;6.132;2023-08-07T03:51:57;15.30;;;2.95;;
76566;SDS011;65428;53.194;6.132;2023-08-07T03:54:24;11.77;;;2.75;;
76566;SDS011;65428;53.194;6.132;2023-08-07T03:56:50;12.57;;;3.13;;
76566;SDS011;65428;53.194;6.132;2023-08-07T03:59:16;14.48;;;3.30;;
76566;SDS011;65428;53.194;6.132;2023-08-07T04:01:42;13.57;;;3.30;;
76566;SDS011;65428;53.194;6.132;2023-08-07T04:04:08;14.37;;;3.20;;
76566;SDS011;65428;53.194;6.132;2023-08-07T04:06:33;10.45;;;3.25;;
76566;SDS011;65428;53.194;6.132;2023-08-07T04:08:59;15.83;;;3.77;;
76566;SDS011;65428;53.194;6.132;2023-08-07T04:11:25;14.55;;;2.85;;
76566;SDS011;65428;53.194;6.132;2023-08-07T04:13:51;12.98;;;3.65;;
76566;SDS011;65428;53.194;6.132;2023-08-07T04:16:17;12.02;;;3.55;;
76566;SDS011;65428;53.194;6.132;2023-08-07T04:18:42;12.45;;;2.95;;
76566;SDS011;65428;53.194;6.132;2023-08-07T04:21:08;9.00;;;2.03;;
76566;SDS011;65428;53.194;6.132;2023-08-07T04:23:34;10.35;;;2.38;;
76566;SDS011;65428;53.194;6.132;2023-08-07T04:25:59;8.80;;;2.10;;
76566;SDS011;65428;53.194;6.132;2023-08-07T04:28:27;15.88;;;3.20;;
76566;SDS011;65428;53.194;6.132;2023-08-07T04:30:53;13.75;;;3.72;;
76566;SDS011;65428;53.194;6.132;2023-08-07T04:33:19;11.27;;;3.50;;
76566;SDS011;65428;53.194;6.132;2023-08-07T04:35:45;15.93;;;3.83;;
76566;SDS011;65428;53.194;6.132;2023-08-07T04:38:12;16.65;;;4.53;;
76566;SDS011;65428;53.194;6.132;2023-08-07T04:40:43;19.83;;;4.80;;
76566;SDS011;65428;53.194;6.132;2023-08-07T04:43:13;14.20;;;4.43;;
76566;SDS011;65428;53.194;6.132;2023-08-07T04:45:39;15.50;;;3.80;;
76566;SDS011;65428;53.194;6.132;2023-08-07T04:48:06;17.88;;;4.57;;
76566;SDS011;65428;53.194;6.132;2023-08-07T04:50:33;22.20;;;5.40;;
76566;SDS011;65428;53.194;6.132;2023-08-07T04:52:58;22.00;;;5.40;;
76566;SDS011;65428;53.194;6.132;2023-08-07T04:55:25;21.20;;;4.95;;
76566;SDS011;65428;53.194;6.132;2023-08-07T04:57:50;25.02;;;5.57;;
76566;SDS011;65428;53.194;6.132;2023-08-07T05:00:19;19.15;;;4.95;;
76566;SDS011;65428;53.194;6.132;2023-08-07T05:02:46;25.10;;;5.68;;
76566;SDS011;65428;53.194;6.132;2023-08-07T05:05:13;17.20;;;4.72;;
76566;SDS011;65428;53.194;6.132;2023-08-07T05:07:40;19.13;;;5.10;;
76566;SDS011;65428;53.194;6.132;2023-08-07T05:10:06;20.77;;;5.30;;
76566;SDS011;65428;53.194;6.132;2023-08-07T05:12:32;21.70;;;5.75;;
76566;SDS011;65428;53.194;6.132;2023-08-07T05:14:57;23.00;;;5.30;;
76566;SDS011;65428;53.194;6.132;2023-08-07T05:17:23;20.15;;;5.00;;
76566;SDS011;65428;53.194;6.132;2023-08-07T05:19:49;20.47;;;5.20;;
76566;SDS011;65428;53.194;6.132;2023-08-07T05:22:14;18.05;;;4.60;;
76566;SDS011;65428;53.194;6.132;2023-08-07T05:24:40;20.00;;;4.50;;
76566;SDS011;65428;53.194;6.132;2023-08-07T05:27:07;15.30;;;4.00;;
76566;SDS011;65428;53.194;6.132;2023-08-07T05:29:34;16.77;;;4.43;;
76566;SDS011;65428;53.194;6.132;2023-08-07T05:32:00;17.08;;;4.00;;
76566;SDS011;65428;53.194;6.132;2023-08-07T05:34:25;13.10;;;3.15;;
76566;SDS011;65428;53.194;6.132;2023-08-07T05:36:51;12.80;;;3.37;;
76566;SDS011;65428;53.194;6.132;2023-08-07T05:39:17;13.82;;;3.35;;
76566;SDS011;65428;53.194;6.132;2023-08-07T05:41:42;12.53;;;3.37;;
76566;SDS011;65428;53.194;6.132;2023-08-07T05:44:08;14.32;;;3.67;;
76566;SDS011;65428;53.194;6.132;2023-08-07T05:46:34;12.52;;;3.70;;
76566;SDS011;65428;53.194;6.132;2023-08-07T05:48:59;13.33;;;3.07;;
76566;SDS011;65428;53.194;6.132;2023-08-07T05:51:25;15.35;;;3.78;;
76566;SDS011;65428;53.194;6.132;2023-08-07T05:53:51;14.10;;;3.47;;
76566;SDS011;65428;53.194;6.132;2023-08-07T05:56:16;11.02;;;3.40;;
76566;SDS011;65428;53.194;6.132;2023-08-07T05:58:43;12.02;;;3.03;;
76566;SDS011;65428;53.194;6.132;2023-08-07T06:01:08;15.13;;;3.72;;
76566;SDS011;65428;53.194;6.132;2023-08-07T06:03:34;15.23;;;3.80;;
76566;SDS011;65428;53.194;6.132;2023-08-07T06:05:59;15.38;;;3.53;;
76566;SDS011;65428;53.194;6.132;2023-08-07T06:08:25;11.50;;;3.13;;
76566;SDS011;65428;53.194;6.132;2023-08-07T06:10:51;13.43;;;3.40;;
76566;SDS011;65428;53.194;6.132;2023-08-07T06:13:17;11.90;;;2.95;;
76566;SDS011;65428;53.194;6.132;2023-08-07T06:15:42;11.07;;;3.50;;
76566;SDS011;65428;53.194;6.132;2023-08-07T06:18:08;14.00;;;3.50;;
76566;SDS011;65428;53.194;6.132;2023-08-07T06:20:34;13.47;;;3.77;;
76566;SDS011;65428;53.194;6.132;2023-08-07T06:23:00;12.07;;;2.63;;
76566;SDS011;65428;53.194;6.132;2023-08-07T06:25:26;10.05;;;2.40;;
76566;SDS011;65428;53.194;6.132;2023-08-07T06:27:52;10.13;;;1.77;;
76566;SDS011;65428;53.194;6.132;2023-08-07T06:30:18;7.67;;;1.30;;
76566;SDS011;65428;53.194;6.132;2023-08-07T06:32:44;8.30;;;1.50;;
76566;SDS011;65428;53.194;6.132;2023-08-07T06:35:10;8.40;;;1.48;;
76566;SDS011;65428;53.194;6.132;2023-08-07T06:37:35;8.70;;;1.80;;
76566;SDS011;65428;53.194;6.132;2023-08-07T06:40:01;9.68;;;1.95;;
76566;SDS011;65428;53.194;6.132;2023-08-07T06:42:27;9.50;;;1.75;;
76566;SDS011;65428;53.194;6.132;2023-08-07T06:44:53;9.32;;;1.90;;
76566;SDS011;65428;53.194;6.132;2023-08-07T06:47:19;8.90;;;1.50;;
76566;SDS011;65428;53.194;6.132;2023-08-07T06:49:44;6.82;;;1.52;;
76566;SDS011;65428;53.194;6.132;2023-08-07T06:52:10;6.88;;;1.40;;
76566;SDS011;65428;53.194;6.132;2023-08-07T06:54:36;10.33;;;1.50;;
76566;SDS011;65428;53.194;6.132;2023-08-07T06:57:01;7.63;;;1.55;;
76566;SDS011;65428;53.194;6.132;2023-08-07T06:59:27;6.07;;;1.40;;
76566;SDS011;65428;53.194;6.132;2023-08-07T07:01:53;6.07;;;1.40;;
76566;SDS011;65428;53.194;6.132;2023-08-07T07:04:18;8.13;;;1.50;;
76566;SDS011;65428;53.194;6.132;2023-08-07T07:06:44;11.03;;;1.83;;
76566;SDS011;65428;53.194;6.132;2023-08-07T07:09:10;9.18;;;1.65;;
76566;SDS011;65428;53.194;6.132;2023-08-07T07:11:36;9.00;;;1.95;;
76566;SDS011;65428;53.194;6.132;2023-08-07T07:14:02;8.90;;;2.10;;
76566;SDS011;65428;53.194;6.132;2023-08-07T07:16:28;9.10;;;2.00;;
76566;SDS011;65428;53.194;6.132;2023-08-07T07:18:54;13.70;;;2.90;;
76566;SDS011;65428;53.194;6.132;2023-08-07T07:21:21;10.32;;;2.35;;
76566;SDS011;65428;53.194;6.132;2023-08-07T07:23:46;11.60;;;2.40;;
76566;SDS011;65428;53.194;6.132;2023-08-07T07:26:12;11.57;;;2.95;;
76566;SDS011;65428;53.194;6.132;2023-08-07T07:28:37;12.13;;;3.20;;
76566;SDS011;65428;53.194;6.132;2023-08-07T07:31:03;11.18;;;3.65;;
76566;SDS011;65428;53.194;6.132;2023-08-07T07:33:31;9.38;;;3.03;;
76566;SDS011;65428;53.194;6.132;2023-08-07T07:35:57;11.32;;;3.38;;
76566;SDS011;65428;53.194;6.132;2023-08-07T07:38:22;10.15;;;2.58;;
76566;SDS011;65428;53.194;6.132;2023-08-07T07:40:48;10.07;;;2.90;;
76566;SDS011;65428;53.194;6.132;2023-08-07T07:43:14;13.00;;;2.80;;
76566;SDS011;65428;53.194;6.132;2023-08-07T07:45:39;12.63;;;3.13;;
76566;SDS011;65428;53.194;6.132;2023-08-07T07:48:05;11.68;;;2.85;;
76566;SDS011;65428;53.194;6.132;2023-08-07T07:50:33;15.02;;;3.10;;
76566;SDS011;65428;53.194;6.132;2023-08-07T07:52:59;15.25;;;3.45;;
76566;SDS011;65428;53.194;6.132;2023-08-07T07:55:25;14.33;;;3.63;;
76566;SDS011;65428;53.194;6.132;2023-08-07T07:57:51;15.73;;;3.88;;
76566;SDS011;65428;53.194;6.132;2023-08-07T08:00:16;15.43;;;3.90;;
76566;SDS011;65428;53.194;6.132;2023-08-07T08:02:43;12.80;;;3.73;;
76566;SDS011;65428;53.194;6.132;2023-08-07T08:05:08;11.68;;;4.10;;
76566;SDS011;65428;53.194;6.132;2023-08-07T08:07:37;11.68;;;3.13;;
76566;SDS011;65428;53.194;6.132;2023-08-07T08:10:07;11.43;;;3.28;;
76566;SDS011;65428;53.194;6.132;2023-08-07T08:12:34;14.70;;;4.10;;
76566;SDS011;65428;53.194;6.132;2023-08-07T08:15:00;13.60;;;3.10;;
76566;SDS011;65428;53.194;6.132;2023-08-07T08:17:27;10.95;;;3.45;;
76566;SDS011;65428;53.194;6.132;2023-08-07T08:19:52;10.02;;;2.42;;
76566;SDS011;65428;53.194;6.132;2023-08-07T08:22:18;10.00;;;2.17;;
76566;SDS011;65428;53.194;6.132;2023-08-07T08:24:44;7.20;;;1.67;;
76566;SDS011;65428;53.194;6.132;2023-08-07T08:27:10;7.45;;;1.58;;
76566;SDS011;65428;53.194;6.132;2023-08-07T08:29:36;9.38;;;1.70;;
76566;SDS011;65428;53.194;6.132;2023-08-07T08:32:01;6.93;;;1.87;;
76566;SDS011;65428;53.194;6.132;2023-08-07T08:34:27;6.90;;;1.33;;
76566;SDS011;65428;53.194;6.132;2023-08-07T08:36:53;7.20;;;1.47;;
76566;SDS011;65428;53.194;6.132;2023-08-07T08:39:18;9.00;;;1.40;;
76566;SDS011;65428;53.194;6.132;2023-08-07T08:41:47;8.47;;;2.00;;
76566;SDS011;65428;53.194;6.132;2023-08-07T08:44:14;9.35;;;1.85;;
76566;SDS011;65428;53.194;6.132;2023-08-07T08:46:43;6.45;;;1.65;;
76566;SDS011;65428;53.194;6.132;2023-08-07T08:49:12;9.20;;;1.52;;
76566;SDS011;65428;53.194;6.132;2023-08-07T08:51:45;6.75;;;1.40;;
76566;SDS011;65428;53.194;6.132;2023-08-07T08:54:11;7.43;;;1.50;;
76566;SDS011;65428;53.194;6.132;2023-08-07T08:56:38;8.98;;;1.30;;
76566;SDS011;65428;53.194;6.132;2023-08-07T08:59:04;5.47;;;1.08;;
76566;SDS011;65428;53.194;6.132;2023-08-07T09:01:29;7.90;;;1.50;;
76566;SDS011;65428;53.194;6.132;2023-08-07T09:03:56;5.60;;;1.03;;
76566;SDS011;65428;53.194;6.132;2023-08-07T09:06:22;7.95;;;1.38;;
76566;SDS011;65428;53.194;6.132;2023-08-07T09:08:49;9.98;;;1.90;;
76566;SDS011;65428;53.194;6.132;2023-08-07T09:11:16;7.82;;;1.40;;
76566;SDS011;65428;53.194;6.132;2023-08-07T09:13:42;8.45;;;1.80;;
76566;SDS011;65428;53.194;6.132;2023-08-07T09:16:12;7.57;;;1.50;;
76566;SDS011;65428;53.194;6.132;2023-08-07T09:18:38;8.43;;;2.28;;
76566;SDS011;65428;53.194;6.132;2023-08-07T09:21:04;8.15;;;1.85;;
76566;SDS011;65428;53.194;6.132;2023-08-07T09:23:30;9.33;;;1.83;;
76566;SDS011;65428;53.194;6.132;2023-08-07T09:25:59;8.90;;;1.80;;
76566;SDS011;65428;53.194;6.132;2023-08-07T09:28:26;10.40;;;1.95;;
76566;SDS011;65428;53.194;6.132;2023-08-07T09:30:53;8.00;;;1.58;;
76566;SDS011;65428;53.194;6.132;2023-08-07T09:33:28;7.38;;;1.60;;
76566;SDS011;65428;53.194;6.132;2023-08-07T09:35:59;9.93;;;1.77;;
76566;SDS011;65428;53.194;6.132;2023-08-07T09:38:29;7.00;;;1.17;;
76566;SDS011;65428;53.194;6.132;2023-08-07T09:41:01;5.83;;;1.60;;
76566;SDS011;65428;53.194;6.132;2023-08-07T09:43:29;7.57;;;1.33;;
76566;SDS011;65428;53.194;6.132;2023-08-07T09:46:05;6.97;;;1.17;;
76566;SDS011;65428;53.194;6.132;2023-08-07T09:48:31;6.43;;;1.40;;
76566;SDS011;65428;53.194;6.132;2023-08-07T09:51:04;8.93;;;1.50;;
76566;SDS011;65428;53.194;6.132;2023-08-07T09:53:30;8.20;;;1.30;;
76566;SDS011;65428;53.194;6.132;2023-08-07T09:55:56;7.97;;;1.27;;
76566;SDS011;65428;53.194;6.132;2023-08-07T09:58:23;6.07;;;1.50;;
76566;SDS011;65428;53.194;6.132;2023-08-07T10:00:49;7.43;;;1.75;;
76566;SDS011;65428;53.194;6.132;2023-08-07T10:03:17;6.90;;;1.10;;
76566;SDS011;65428;53.194;6.132;2023-08-07T10:05:45;7.70;;;1.52;;
76566;SDS011;65428;53.194;6.132;2023-08-07T10:08:11;7.13;;;1.10;;
76566;SDS011;65428;53.194;6.132;2023-08-07T10:10:37;6.00;;;1.27;;
76566;SDS011;65428;53.194;6.132;2023-08-07T10:13:03;6.97;;;1.50;;
76566;SDS011;65428;53.194;6.132;2023-08-07T10:15:30;6.00;;;1.58;;
76566;SDS011;65428;53.194;6.132;2023-08-07T10:17:58;9.00;;;1.33;;
76566;SDS011;65428;53.194;6.132;2023-08-07T10:20:27;9.60;;;1.60;;
76566;SDS011;65428;53.194;6.132;2023-08-07T10:22:57;8.63;;;1.50;;
76566;SDS011;65428;53.194;6.132;2023-08-07T10:25:34;9.52;;;1.77;;
76566;SDS011;65428;53.194;6.132;2023-08-07T10:28:02;7.78;;;2.10;;
76566;SDS011;65428;53.194;6.132;2023-08-07T10:30:31;5.53;;;1.10;;
76566;SDS011;65428;53.194;6.132;2023-08-07T10:32:58;6.37;;;1.63;;
76566;SDS011;65428;53.194;6.132;2023-08-07T10:35:31;5.07;;;1.00;;
76566;SDS011;65428;53.194;6.132;2023-08-07T10:38:10;5.53;;;1.00;;
76566;SDS011;65428;53.194;6.132;2023-08-07T10:43:30;6.63;;;1.20;;
76566;SDS011;65428;53.194;6.132;2023-08-07T10:46:20;7.55;;;0.88;;
76566;SDS011;65428;53.194;6.132;2023-08-07T10:48:53;6.07;;;0.80;;
76566;SDS011;65428;53.194;6.132;2023-08-07T10:51:23;6.88;;;1.40;;
76566;SDS011;65428;53.194;6.132;2023-08-07T10:53:55;6.38;;;0.98;;
76566;SDS011;65428;53.194;6.132;2023-08-07T10:56:32;4.80;;;0.97;;
76566;SDS011;65428;53.194;6.132;2023-08-07T10:59:07;6.13;;;1.02;;
76566;SDS011;65428;53.194;6.132;2023-08-07T11:04:07;5.68;;;0.98;;
76566;SDS011;65428;53.194;6.132;2023-08-07T11:06:40;6.53;;;1.00;;
76566;SDS011;65428;53.194;6.132;2023-08-07T11:09:07;6.82;;;0.82;;
76566;SDS011;65428;53.194;6.132;2023-08-07T11:11:44;5.80;;;1.30;;
76566;SDS011;65428;53.194;6.132;2023-08-07T11:14:15;4.10;;;1.20;;
76566;SDS011;65428;53.194;6.132;2023-08-07T11:16:42;5.75;;;1.20;;
76566;SDS011;65428;53.194;6.132;2023-08-07T11:19:09;5.50;;;0.73;;
76566;SDS011;65428;53.194;6.132;2023-08-07T11:21:36;5.68;;;1.02;;
76566;SDS011;65428;53.194;6.132;2023-08-07T11:24:02;6.53;;;1.20;;
76566;SDS011;65428;53.194;6.132;2023-08-07T11:26:28;4.15;;;1.08;;
76566;SDS011;65428;53.194;6.132;2023-08-07T11:28:54;6.13;;;1.23;;
76566;SDS011;65428;53.194;6.132;2023-08-07T11:31:21;5.38;;;1.00;;
76566;SDS011;65428;53.194;6.132;2023-08-07T11:33:52;5.13;;;1.10;;
76566;SDS011;65428;53.194;6.132;2023-08-07T11:36:27;5.70;;;1.25;;
76566;SDS011;65428;53.194;6.132;2023-08-07T11:38:54;5.20;;;1.00;;
76566;SDS011;65428;53.194;6.132;2023-08-07T11:41:19;6.63;;;1.17;;
76566;SDS011;65428;53.194;6.132;2023-08-07T11:43:45;7.32;;;1.10;;
76566;SDS011;65428;53.194;6.132;2023-08-07T11:46:12;5.40;;;0.98;;
76566;SDS011;65428;53.194;6.132;2023-08-07T11:48:40;5.35;;;1.10;;
76566;SDS011;65428;53.194;6.132;2023-08-07T11:51:07;6.13;;;1.20;;
76566;SDS011;65428;53.194;6.132;2023-08-07T11:53:36;6.18;;;1.27;;
76566;SDS011;65428;53.194;6.132;2023-08-07T11:56:05;5.43;;;1.15;;
76566;SDS011;65428;53.194;6.132;2023-08-07T11:58:34;5.40;;;1.10;;
76566;SDS011;65428;53.194;6.132;2023-08-07T12:01:05;5.22;;;0.93;;
76566;SDS011;65428;53.194;6.132;2023-08-07T12:03:32;4.43;;;0.70;;
76566;SDS011;65428;53.194;6.132;2023-08-07T12:06:02;5.50;;;0.90;;
76566;SDS011;65428;53.194;6.132;2023-08-07T12:08:38;4.67;;;0.90;;
76566;SDS011;65428;53.194;6.132;2023-08-07T12:11:06;5.03;;;0.80;;
76566;SDS011;65428;53.194;6.132;2023-08-07T12:13:39;5.22;;;0.85;;
76566;SDS011;65428;53.194;6.132;2023-08-07T12:16:06;5.33;;;1.07;;
76566;SDS011;65428;53.194;6.132;2023-08-07T12:18:33;4.67;;;0.77;;
76566;SDS011;65428;53.194;6.132;2023-08-07T12:21:01;4.53;;;0.82;;
76566;SDS011;65428;53.194;6.132;2023-08-07T12:23:29;4.20;;;0.80;;
76566;SDS011;65428;53.194;6.132;2023-08-07T12:25:58;3.10;;;0.80;;
76566;SDS011;65428;53.194;6.132;2023-08-07T12:28:24;3.85;;;0.50;;
76566;SDS011;65428;53.194;6.132;2023-08-07T12:30:50;3.40;;;0.60;;
76566;SDS011;65428;53.194;6.132;2023-08-07T12:33:17;5.75;;;0.82;;
76566;SDS011;65428;53.194;6.132;2023-08-07T12:35:43;2.97;;;0.60;;
76566;SDS011;65428;53.194;6.132;2023-08-07T12:38:09;4.95;;;1.15;;
76566;SDS011;65428;53.194;6.132;2023-08-07T12:40:35;4.80;;;0.90;;
76566;SDS011;65428;53.194;6.132;2023-08-07T12:43:05;5.07;;;1.20;;
76566;SDS011;65428;53.194;6.132;2023-08-07T12:45:31;6.10;;;0.85;;
76566;SDS011;65428;53.194;6.132;2023-08-07T12:47:57;5.00;;;1.33;;
76566;SDS011;65428;53.194;6.132;2023-08-07T12:50:23;6.93;;;1.63;;
76566;SDS011;65428;53.194;6.132;2023-08-07T12:52:49;9.65;;;1.60;;
76566;SDS011;65428;53.194;6.132;2023-08-07T12:55:15;7.07;;;1.55;;
76566;SDS011;65428;53.194;6.132;2023-08-07T12:57:41;6.73;;;1.53;;
76566;SDS011;65428;53.194;6.132;2023-08-07T13:00:10;5.40;;;1.33;;
76566;SDS011;65428;53.194;6.132;2023-08-07T13:02:42;6.03;;;1.23;;
76566;SDS011;65428;53.194;6.132;2023-08-07T13:05:09;6.43;;;1.17;;
76566;SDS011;65428;53.194;6.132;2023-08-07T13:07:36;5.45;;;1.60;;
76566;SDS011;65428;53.194;6.132;2023-08-07T13:10:03;4.40;;;1.33;;
76566;SDS011;65428;53.194;6.132;2023-08-07T13:12:29;5.80;;;1.55;;
76566;SDS011;65428;53.194;6.132;2023-08-07T13:14:59;7.22;;;1.83;;
76566;SDS011;65428;53.194;6.132;2023-08-07T13:17:24;7.93;;;1.92;;
76566;SDS011;65428;53.194;6.132;2023-08-07T13:19:50;6.73;;;2.03;;
76566;SDS011;65428;53.194;6.132;2023-08-07T13:22:16;6.57;;;1.75;;
76566;SDS011;65428;53.194;6.132;2023-08-07T13:24:42;10.07;;;2.10;;
76566;SDS011;65428;53.194;6.132;2023-08-07T13:27:08;7.68;;;1.60;;
76566;SDS011;65428;53.194;6.132;2023-08-07T13:29:34;6.05;;;1.50;;
76566;SDS011;65428;53.194;6.132;2023-08-07T13:31:59;6.28;;;1.20;;
76566;SDS011;65428;53.194;6.132;2023-08-07T13:34:25;6.53;;;1.17;;
76566;SDS011;65428;53.194;6.132;2023-08-07T13:36:51;6.95;;;1.60;;
76566;SDS011;65428;53.194;6.132;2023-08-07T13:39:16;5.50;;;1.63;;
76566;SDS011;65428;53.194;6.132;2023-08-07T13:41:42;6.65;;;1.00;;
76566;SDS011;65428;53.194;6.132;2023-08-07T13:44:08;6.73;;;1.13;;
76566;SDS011;65428;53.194;6.132;2023-08-07T13:46:33;8.15;;;1.60;;
76566;SDS011;65428;53.194;6.132;2023-08-07T13:48:59;6.30;;;1.20;;
76566;SDS011;65428;53.194;6.132;2023-08-07T13:51:25;5.53;;;1.58;;
76566;SDS011;65428;53.194;6.132;2023-08-07T13:53:50;5.37;;;1.03;;
76566;SDS011;65428;53.194;6.132;2023-08-07T13:56:17;6.78;;;1.60;;
76566;SDS011;65428;53.194;6.132;2023-08-07T13:58:43;5.77;;;1.37;;
76566;SDS011;65428;53.194;6.132;2023-08-07T14:01:09;5.68;;;1.17;;
76566;SDS011;65428;53.194;6.132;2023-08-07T14:03:34;5.57;;;1.40;;
76566;SDS011;65428;53.194;6.132;2023-08-07T14:06:00;6.13;;;1.23;;
76566;SDS011;65428;53.194;6.132;2023-08-07T14:08:26;6.97;;;1.60;;
76566;SDS011;65428;53.194;6.132;2023-08-07T14:10:52;4.93;;;1.50;;
76566;SDS011;65428;53.194;6.132;2023-08-07T14:13:17;5.45;;;1.42;;
76566;SDS011;65428;53.194;6.132;2023-08-07T14:15:43;6.45;;;1.17;;
76566;SDS011;65428;53.194;6.132;2023-08-07T14:18:09;6.03;;;1.00;;
76566;SDS011;65428;53.194;6.132;2023-08-07T14:20:36;5.47;;;1.00;;
76566;SDS011;65428;53.194;6.132;2023-08-07T14:23:02;5.57;;;0.73;;
76566;SDS011;65428;53.194;6.132;2023-08-07T14:25:28;3.85;;;0.60;;
76566;SDS011;65428;53.194;6.132;2023-08-07T14:27:53;6.43;;;1.00;;
76566;SDS011;65428;53.194;6.132;2023-08-07T14:30:19;4.65;;;1.10;;
76566;SDS011;65428;53.194;6.132;2023-08-07T14:32:45;5.18;;;1.00;;
76566;SDS011;65428;53.194;6.132;2023-08-07T14:35:12;5.67;;;1.17;;
76566;SDS011;65428;53.194;6.132;2023-08-07T14:37:41;5.38;;;1.20;;
76566;SDS011;65428;53.194;6.132;2023-08-07T14:40:07;5.38;;;0.70;;
76566;SDS011;65428;53.194;6.132;2023-08-07T14:42:33;5.28;;;0.93;;
76566;SDS011;65428;53.194;6.132;2023-08-07T14:44:58;4.73;;;0.80;;
76566;SDS011;65428;53.194;6.132;2023-08-07T14:47:25;5.25;;;0.90;;
76566;SDS011;65428;53.194;6.132;2023-08-07T14:49:51;5.22;;;0.80;;
76566;SDS011;65428;53.194;6.132;2023-08-07T14:52:17;4.80;;;0.70;;
76566;SDS011;65428;53.194;6.132;2023-08-07T14:54:43;3.87;;;0.80;;
76566;SDS011;65428;53.194;6.132;2023-08-07T14:57:09;4.85;;;0.70;;